Terminal Aerodrome Forecast
Issued by NWS Cheyenne, WY

Home | Current Version | Previous Version | Text Only | Print | Product List | Glossary On
Versions: 1 2 3 4 5 6 7 8 9 10 11 12 13 14 15 16 17 18 19 20 21 22 23 24
000
FTUS45 KCYS 211331 AAC
TAFCYS
TAF AMD
KCYS 211331Z 2114/2212 11005KT 1/2SM SN FZFG VV009
      TEMPO 2114/2116 2SM -SN BR OVC015
     FM211600 11005KT 3SM -SN BR OVC015
     FM211800 30010KT P6SM SCT015 OVC035
     FM220000 18008KT P6SM SCT030
     FM220700 24007KT P6SM SKC=

USA.gov is the U.S. government's official web portal to all federal, state and local government web resources and services.